Detall de PIREP

Printer-friendly versionPDF version

[2011/11/15 08:29:00]
Flight IATA:CT2110
Pilot Number:041
Company ICAO:CAT
Aircraft Type:F28/A
PAX:48
Departing Airport: LEVC
Destination Airport: LEST
Alternate Airport:LECO
Online: VATSIM
Route:CENTA A33 PRADO UN733 FORNO
Flight Level:F290
No Slew and time accel
No pause
Crash detect
Detect pilot in Cockpit between each 30 and 45 minutes
08:29 Zero fuel Weight: 57506 Lbs, Fuel Weight: 11386 Lbs
08:29 VATSIM:LEVC 150800Z 28008KT 9999 FEW035 15/11 Q1012 NOSIG
08:29 VATSIM:LEST 150800Z 14005KT 9999 FEW030 07/06 Q1008 NOSIG
08:29 VOICE CATALONIAN
08:31 Parking Brakes off
08:37 Take-off
08:37 Take off Weight: 68456 Lbs
08:37 Wind: 283º @ 007 Knots Heading: 295º
08:37 POS N39º 29´ 31´´ W000º 29´ 21´´
08:37 Gear Up: 183 Knots
08:37 Flaps:1 at 183 Knots
08:37 Flaps:0 at 217 Knots
08:52 Wind:197º@041 Knots Heading: 292º Ground Speed: 376 Knots Altitude 23398 ft
08:57TOC
08:57 Fuel Weight: 8689 Lb
09:07 Wind:277º@058 Knots Heading: 294º Ground Speed: 360 Knots Altitude 29019 ft
09:22 Wind:289º@052 Knots Heading: 300º Ground Speed: 374 Knots Altitude 28950 ft
09:22 TOD
09:22 Fuel Weight: 6934 Lb
09:37 Wind:257º@019 Knots Heading: 301º Ground Speed: 266 Knots Altitude 8700 ft
09:52 Wind:275º@008 Knots Heading: 306º Ground Speed: 259 Knots Altitude 5157 ft
10:02 Flaps:1 at 241 Knots
10:03 Flaps:2 at 227 Knots
10:04 Flaps:3 at 198 Knots
10:05 Gear Down: 182 Knots
10:05 Flaps:4 at 179 Knots
10:07 Wind:126º@002 Knots Heading: 164º Ground Speed: 132 Knots Altitude 1364 ft
10:07 TouchDown:Rate -84 ft/min Speed: 122 Knots
10:07 VATSIM:LEST 151000Z 16004KT 9999 SCT030 10/08 Q1009 NOSIG
10:07 Land
10:07 Wind:126º@002 Knots
10:07 Heading: 166º
10:07 Flight Duration: 01:30
10:07 Landing Weight: 62032 Lbs
10:07 POS N42º 53´ 22´´ W008º 24´ 45´´
10:13 Parking brakes on
10:13 Block to Block Duration: 01:42
10:13 Final Fuel: 4307 Lbls
10:13 Spent Fuel: 7078 Lbls
10:13 Flight Length: 468 NM
10:13 TOD Land Length: 200 NM

Exportar CSV

Powered by Drupal - Modified by Danger4k